createdAt,value
2023-05-10T00:00:33.841Z,68.17
2023-05-10T00:01:33.857Z,65.77
2023-05-10T00:02:33.906Z,57.75
2023-05-10T00:03:33.890Z,53.16
2023-05-10T00:04:33.807Z,56.21
2023-05-10T00:05:33.851Z,63.47
2023-05-10T00:06:33.829Z,57.72
2023-05-10T00:07:33.852Z,64.64
2023-05-10T00:08:33.764Z,55.09
2023-05-10T00:09:33.768Z,67.74
2023-05-10T00:10:33.805Z,61.53
2023-05-10T00:11:33.773Z,58.94
2023-05-10T00:12:33.776Z,62.55
2023-05-10T00:13:33.762Z,69.56
2023-05-10T00:14:33.767Z,62.48
2023-05-10T00:15:33.717Z,60.63
2023-05-10T00:16:33.780Z,55.00
2023-05-10T00:17:33.796Z,55.07
2023-05-10T00:18:33.740Z,60.12
2023-05-10T00:19:33.773Z,52.51
2023-05-10T00:20:33.662Z,60.12
2023-05-10T00:21:33.693Z,58.87
2023-05-10T00:22:33.687Z,53.47
2023-05-10T00:23:33.693Z,60.08
2023-05-10T00:24:34.669Z,60.89
2023-05-10T00:25:33.676Z,61.63
2023-05-10T00:26:33.641Z,58.31
2023-05-10T00:27:33.626Z,61.15
2023-05-10T00:28:33.649Z,53.49
2023-05-10T00:29:33.697Z,53.73
2023-05-10T00:30:33.616Z,58.35
2023-05-10T00:31:33.629Z,59.33
2023-05-10T00:32:33.645Z,62.08
2023-05-10T00:33:33.626Z,59.83
2023-05-10T00:34:33.615Z,54.25
2023-05-10T00:35:33.589Z,54.89
2023-05-10T00:36:33.588Z,59.39
2023-05-10T00:37:33.594Z,63.16
2023-05-10T00:38:33.555Z,64.17
2023-05-10T00:39:33.573Z,61.43
2023-05-10T00:40:33.539Z,67.40
2023-05-10T00:41:33.563Z,60.74
2023-05-10T00:42:33.536Z,56.06
2023-05-10T00:43:33.572Z,54.72
2023-05-10T00:44:33.512Z,58.79
2023-05-10T00:45:33.505Z,59.01
2023-05-10T00:46:33.640Z,60.28
2023-05-10T00:47:33.568Z,57.47
2023-05-10T00:48:33.524Z,67.68
2023-05-10T00:49:33.493Z,68.37
2023-05-10T00:50:33.480Z,56.52
2023-05-10T00:51:33.487Z,69.10
2023-05-10T00:52:33.457Z,66.33
2023-05-10T00:53:33.467Z,61.51
2023-05-10T00:54:33.455Z,54.62
2023-05-10T00:55:33.456Z,59.40
2023-05-10T00:56:33.464Z,54.90
2023-05-10T00:57:33.444Z,60.41
2023-05-10T00:58:33.418Z,55.57
2023-05-10T00:59:33.422Z,62.49
2023-05-10T01:00:33.427Z,63.36
2023-05-10T01:01:33.464Z,54.49
2023-05-10T01:02:33.489Z,54.49
2023-05-10T01:03:33.422Z,54.39
2023-05-10T01:04:33.423Z,55.04
2023-05-10T01:05:33.378Z,62.03
2023-05-10T01:06:33.382Z,54.69
2023-05-10T01:07:33.366Z,61.06
2023-05-10T01:08:33.361Z,61.14
2023-05-10T01:09:33.546Z,54.81
2023-05-10T01:10:33.384Z,61.07
2023-05-10T01:11:33.380Z,55.25
2023-05-10T01:12:33.430Z,60.29
2023-05-10T01:13:33.341Z,62.34
2023-05-10T01:14:34.835Z,62.54
2023-05-10T01:15:33.312Z,66.14
2023-05-10T01:16:33.398Z,66.42
2023-05-10T01:17:33.395Z,54.12
2023-05-10T01:18:33.353Z,62.84
2023-05-10T01:19:33.318Z,60.17
2023-05-10T01:20:33.280Z,66.91
2023-05-10T01:21:33.327Z,58.16
2023-05-10T01:22:33.292Z,64.28
2023-05-10T01:23:33.370Z,55.28
2023-05-10T01:24:33.294Z,70.28
2023-05-10T01:25:34.290Z,58.25
2023-05-10T01:26:33.288Z,59.79
2023-05-10T01:27:33.261Z,53.81
2023-05-10T01:28:33.296Z,62.22
2023-05-10T01:29:33.276Z,67.89
2023-05-10T01:30:33.237Z,59.48
2023-05-10T01:31:33.277Z,58.41
2023-05-10T01:32:33.317Z,72.50
2023-05-10T01:33:33.250Z,55.18
2023-05-10T01:34:33.237Z,59.86
2023-05-10T01:35:33.186Z,54.29
2023-05-10T01:36:33.177Z,54.43
2023-05-10T01:37:33.188Z,56.21
2023-05-10T01:38:33.174Z,59.73
2023-05-10T01:39:33.158Z,54.55
2023-05-10T01:40:33.145Z,54.59
2023-05-10T01:41:33.146Z,63.18
2023-05-10T01:42:33.145Z,61.46
2023-05-10T01:43:33.123Z,66.97
2023-05-10T01:44:33.170Z,58.91
2023-05-10T01:45:33.103Z,56.08
2023-05-10T01:46:33.137Z,55.63
2023-05-10T01:47:33.128Z,63.77
2023-05-10T01:48:33.187Z,57.35
2023-05-10T01:49:33.105Z,63.24
2023-05-10T01:50:33.087Z,66.01
2023-05-10T01:51:33.086Z,54.37
2023-05-10T01:52:33.081Z,58.12
2023-05-10T01:53:33.083Z,70.41
2023-05-10T01:54:33.070Z,63.72
2023-05-10T01:55:33.072Z,55.75
2023-05-10T01:56:33.080Z,54.96
2023-05-10T01:57:33.084Z,69.54
2023-05-10T01:58:33.046Z,59.61
2023-05-10T01:59:33.021Z,66.26
2023-05-10T02:00:33.090Z,56.51
2023-05-10T02:01:33.029Z,62.27
2023-05-10T02:02:33.023Z,60.68
2023-05-10T02:03:33.016Z,63.67
2023-05-10T02:04:33.023Z,58.02
2023-05-10T02:05:33.295Z,59.27
2023-05-10T02:06:32.990Z,62.12
2023-05-10T02:07:32.988Z,68.05
2023-05-10T02:08:32.990Z,63.95
2023-05-10T02:09:32.983Z,59.72
2023-05-10T02:10:33.014Z,61.81
2023-05-10T02:11:33.004Z,64.47
2023-05-10T02:12:32.967Z,64.38
2023-05-10T02:13:32.988Z,66.54
2023-05-10T02:14:32.998Z,60.08
2023-05-10T02:15:32.929Z,60.42
2023-05-10T02:16:32.990Z,63.58
2023-05-10T02:17:32.986Z,66.41
2023-05-10T02:18:32.956Z,64.26
2023-05-10T02:19:32.916Z,65.13
2023-05-10T02:20:32.911Z,62.24
2023-05-10T02:21:32.912Z,61.64
2023-05-10T02:22:32.945Z,63.78
2023-05-10T02:23:32.895Z,68.93
2023-05-10T02:24:32.899Z,63.38
2023-05-10T02:25:32.934Z,63.92
2023-05-10T02:26:32.888Z,62.47
2023-05-10T02:27:32.904Z,67.96
2023-05-10T02:28:32.854Z,59.48
2023-05-10T02:29:32.875Z,69.76
2023-05-10T02:30:32.887Z,63.39
2023-05-10T02:31:32.885Z,65.18
2023-05-10T02:32:32.872Z,59.74
2023-05-10T02:33:32.861Z,69.19
2023-05-10T02:34:32.842Z,66.83
2023-05-10T02:35:32.840Z,64.54
2023-05-10T02:36:32.878Z,65.72
2023-05-10T02:37:32.957Z,67.89
2023-05-10T02:38:32.821Z,72.85
2023-05-10T02:39:32.808Z,64.18
2023-05-10T02:40:32.812Z,66.57
2023-05-10T02:41:32.809Z,67.55
2023-05-10T02:42:32.815Z,61.03
2023-05-10T02:43:32.782Z,60.33
2023-05-10T02:44:32.776Z,65.21
2023-05-10T02:45:32.749Z,52.40
2023-05-10T02:46:32.775Z,63.55
2023-05-10T02:47:32.767Z,69.22
2023-05-10T02:48:32.742Z,68.63
2023-05-10T02:49:32.726Z,67.22
2023-05-10T02:50:32.731Z,60.77
2023-05-10T02:51:33.742Z,66.19
2023-05-10T02:52:32.770Z,70.66
2023-05-10T02:53:32.697Z,59.61
2023-05-10T02:54:32.710Z,53.94
2023-05-10T02:55:32.720Z,60.04
2023-05-10T02:56:32.719Z,60.70
2023-05-10T02:57:32.689Z,63.46
2023-05-10T02:58:32.690Z,65.88
2023-05-10T02:59:32.917Z,62.05
2023-05-10T03:00:32.672Z,59.47
2023-05-10T03:01:32.702Z,68.15
2023-05-10T03:02:32.714Z,66.42
2023-05-10T03:03:32.647Z,65.49
2023-05-10T03:04:32.720Z,58.75
2023-05-10T03:05:32.684Z,68.40
2023-05-10T03:06:32.647Z,66.97
2023-05-10T03:07:32.630Z,65.78
2023-05-10T03:08:32.607Z,68.43
2023-05-10T03:09:32.632Z,59.47
2023-05-10T03:10:32.618Z,64.53
2023-05-10T03:11:32.643Z,71.26
2023-05-10T03:12:32.631Z,72.70
2023-05-10T03:13:32.729Z,63.40
2023-05-10T03:14:32.581Z,68.67
2023-05-10T03:15:32.568Z,69.77
2023-05-10T03:16:32.605Z,64.41
2023-05-10T03:17:32.576Z,67.30
2023-05-10T03:18:32.665Z,64.81
2023-05-10T03:19:32.569Z,68.34
2023-05-10T03:20:32.558Z,62.36
2023-05-10T03:21:32.544Z,65.78
2023-05-10T03:22:32.583Z,74.14
2023-05-10T03:23:32.531Z,70.02
2023-05-10T03:24:32.524Z,71.41
2023-05-10T03:25:32.545Z,67.53
2023-05-10T03:26:32.538Z,66.62
2023-05-10T03:27:32.511Z,73.99
2023-05-10T03:28:32.523Z,69.00
2023-05-10T03:29:32.519Z,67.03
2023-05-10T03:30:32.521Z,64.90
2023-05-10T03:31:32.536Z,71.97
2023-05-10T03:32:32.512Z,67.60
2023-05-10T03:33:32.515Z,70.33
2023-05-10T03:34:32.527Z,76.77
2023-05-10T03:35:32.465Z,73.03
2023-05-10T03:36:32.481Z,60.80
2023-05-10T03:37:32.486Z,75.88
2023-05-10T03:38:32.476Z,75.40
2023-05-10T03:39:32.502Z,63.57
2023-05-10T03:40:32.504Z,74.81
2023-05-10T03:41:32.419Z,72.98
2023-05-10T03:42:32.442Z,76.62
2023-05-10T03:43:32.453Z,70.80
2023-05-10T03:44:32.430Z,75.78
2023-05-10T03:45:32.422Z,70.65
2023-05-10T03:46:32.426Z,73.55
2023-05-10T03:47:32.473Z,72.10
2023-05-10T03:48:32.387Z,73.70
2023-05-10T03:49:32.420Z,73.19
2023-05-10T03:50:32.408Z,67.74
2023-05-10T03:51:32.391Z,67.80
2023-05-10T03:52:32.353Z,61.11
2023-05-10T03:53:32.386Z,72.46
2023-05-10T03:54:32.353Z,76.46
2023-05-10T03:55:32.337Z,74.66
2023-05-10T03:56:32.378Z,71.73
2023-05-10T03:57:32.357Z,73.56
2023-05-10T03:58:32.330Z,70.87
2023-05-10T03:59:32.331Z,68.62
2023-05-10T04:00:32.316Z,71.62
2023-05-10T04:01:32.333Z,71.94
2023-05-10T04:02:32.382Z,68.95
2023-05-10T04:03:32.403Z,72.84
2023-05-10T04:04:32.311Z,78.91
2023-05-10T04:05:32.275Z,70.01
2023-05-10T04:06:32.344Z,71.12
2023-05-10T04:07:32.292Z,71.78
2023-05-10T04:08:32.298Z,75.38
2023-05-10T04:09:32.305Z,73.95
2023-05-10T04:10:32.273Z,72.83
2023-05-10T04:11:32.264Z,72.10
2023-05-10T04:12:32.248Z,70.22
2023-05-10T04:13:32.279Z,70.68
2023-05-10T04:14:32.226Z,65.20
2023-05-10T04:15:32.266Z,76.12
2023-05-10T04:16:32.411Z,74.35
2023-05-10T04:17:32.238Z,72.06
2023-05-10T04:18:32.421Z,77.03
2023-05-10T04:19:32.214Z,71.93
2023-05-10T04:20:32.227Z,74.96
2023-05-10T04:21:32.236Z,73.02
2023-05-10T04:22:32.224Z,75.00
2023-05-10T04:23:32.196Z,75.24
2023-05-10T04:24:32.185Z,73.18
2023-05-10T04:25:33.247Z,74.34
2023-05-10T04:26:32.178Z,75.68
2023-05-10T04:27:32.146Z,76.24
2023-05-10T04:28:32.156Z,76.40
2023-05-10T04:29:32.202Z,77.88
2023-05-10T04:30:32.182Z,76.61
2023-05-10T04:31:32.143Z,69.29
2023-05-10T04:32:32.186Z,71.07
2023-05-10T04:33:32.132Z,78.23
2023-05-10T04:34:32.124Z,73.95
2023-05-10T04:35:32.146Z,73.52
2023-05-10T04:36:32.132Z,69.60
2023-05-10T04:37:32.166Z,70.88
2023-05-10T04:38:32.094Z,72.01
2023-05-10T04:39:32.155Z,73.88
2023-05-10T04:40:32.090Z,74.87
2023-05-10T04:41:32.078Z,75.82
2023-05-10T04:42:32.072Z,73.76
2023-05-10T04:43:32.054Z,76.88
2023-05-10T04:44:32.058Z,74.05
2023-05-10T04:45:32.116Z,73.21
2023-05-10T04:46:32.120Z,74.92
2023-05-10T04:47:32.067Z,78.07
2023-05-10T04:48:32.093Z,73.96
2023-05-10T04:49:32.039Z,75.08
2023-05-10T04:50:32.085Z,75.07
2023-05-10T04:51:32.004Z,72.51
2023-05-10T04:52:32.008Z,76.86
2023-05-10T04:53:31.987Z,73.62
2023-05-10T04:54:31.992Z,77.23
2023-05-10T04:55:32.020Z,72.48
2023-05-10T04:56:32.053Z,71.91
2023-05-10T04:57:32.035Z,74.14
2023-05-10T04:58:31.981Z,72.86
2023-05-10T04:59:32.872Z,74.78
2023-05-10T05:00:31.974Z,74.97
2023-05-10T05:01:32.050Z,75.95
2023-05-10T05:02:32.022Z,72.71
2023-05-10T05:03:32.125Z,73.23
2023-05-10T05:04:31.944Z,76.43
2023-05-10T05:05:33.338Z,78.07
2023-05-10T05:06:31.928Z,76.45
2023-05-10T05:07:32.005Z,76.57
2023-05-10T05:08:31.998Z,78.80
2023-05-10T05:09:31.920Z,76.68
2023-05-10T05:10:31.958Z,73.19
2023-05-10T05:11:31.957Z,76.45
2023-05-10T05:12:31.980Z,76.93
2023-05-10T05:13:31.953Z,75.56
2023-05-10T05:14:31.961Z,78.43
2023-05-10T05:15:31.892Z,74.87
2023-05-10T05:16:31.919Z,77.68
2023-05-10T05:17:31.912Z,78.81
2023-05-10T05:18:31.856Z,76.82
2023-05-10T05:19:31.923Z,75.66
2023-05-10T05:20:31.873Z,77.50
2023-05-10T05:21:31.837Z,76.35
2023-05-10T05:22:31.851Z,74.98
2023-05-10T05:23:31.924Z,74.50
2023-05-10T05:24:31.845Z,79.47
2023-05-10T05:25:31.860Z,76.15
2023-05-10T05:26:31.844Z,76.56
2023-05-10T05:27:31.836Z,75.71
2023-05-10T05:28:31.816Z,77.85
2023-05-10T05:29:31.858Z,77.90
2023-05-10T05:30:31.819Z,77.62
2023-05-10T05:31:32.459Z,76.10
2023-05-10T05:32:31.795Z,77.21
2023-05-10T05:33:31.809Z,77.09
2023-05-10T05:34:31.765Z,77.62
2023-05-10T05:35:31.760Z,76.67
2023-05-10T05:36:32.887Z,76.07
2023-05-10T05:37:31.778Z,72.96
2023-05-10T05:38:31.780Z,78.88
2023-05-10T05:39:31.750Z,77.74
2023-05-10T05:40:32.737Z,79.42
2023-05-10T05:41:31.716Z,77.97
2023-05-10T05:42:31.740Z,74.68
2023-05-10T05:43:31.769Z,75.89
2023-05-10T05:44:31.723Z,79.15
2023-05-10T05:45:31.767Z,78.26
2023-05-10T05:46:31.674Z,78.09
2023-05-10T05:47:31.746Z,76.51
2023-05-10T05:48:31.725Z,76.72
2023-05-10T05:49:31.717Z,75.54
2023-05-10T05:50:31.670Z,79.01
2023-05-10T05:51:31.757Z,77.46
2023-05-10T05:52:31.691Z,75.55
2023-05-10T05:53:31.714Z,76.17
2023-05-10T05:54:31.659Z,77.39
2023-05-10T05:55:31.617Z,75.52
2023-05-10T05:56:31.681Z,78.21
2023-05-10T05:57:31.666Z,76.90
2023-05-10T05:58:31.696Z,78.10
2023-05-10T05:59:32.284Z,77.32
2023-05-10T06:00:31.603Z,71.65
2023-05-10T06:01:31.671Z,76.44
2023-05-10T06:02:31.815Z,78.21
2023-05-10T06:03:31.757Z,78.92
2023-05-10T06:04:31.695Z,77.57
2023-05-10T06:05:31.575Z,76.26
2023-05-10T06:06:31.589Z,78.74
2023-05-10T06:07:31.598Z,78.39
2023-05-10T06:08:31.577Z,75.69
2023-05-10T06:09:31.572Z,74.27
2023-05-10T06:10:31.586Z,79.44
2023-05-10T06:11:31.604Z,75.92
2023-05-10T06:12:31.588Z,76.27
2023-05-10T06:13:31.708Z,75.34
2023-05-10T06:14:31.561Z,72.85
2023-05-10T06:15:31.545Z,76.38
2023-05-10T06:16:31.602Z,78.30
2023-05-10T06:17:31.570Z,76.61
2023-05-10T06:18:32.536Z,77.37
2023-05-10T06:19:31.644Z,76.06
2023-05-10T06:20:31.573Z,78.36
2023-05-10T06:21:31.521Z,78.17
2023-05-10T06:22:31.503Z,78.15
2023-05-10T06:23:31.489Z,78.70
2023-05-10T06:24:31.550Z,79.05
2023-05-10T06:25:31.508Z,77.28
2023-05-10T06:26:31.478Z,77.90
2023-05-10T06:28:03.887Z,76.08
2023-05-10T06:28:31.511Z,75.24
2023-05-10T06:29:31.461Z,77.50
2023-05-10T06:30:31.959Z,77.50
2023-05-10T06:31:31.530Z,77.97
2023-05-10T06:32:31.490Z,71.42
2023-05-10T06:33:31.431Z,73.55
2023-05-10T06:34:31.496Z,75.05
2023-05-10T06:35:31.424Z,74.34
2023-05-10T06:36:31.412Z,74.90
2023-05-10T06:37:31.414Z,76.96
2023-05-10T06:38:31.400Z,75.34
2023-05-10T06:39:31.404Z,77.97
2023-05-10T06:40:31.485Z,75.30
2023-05-10T06:41:31.380Z,75.56
2023-05-10T06:42:31.362Z,76.80
2023-05-10T06:43:31.363Z,78.93
2023-05-10T06:44:31.351Z,75.84
2023-05-10T06:45:31.335Z,77.24
2023-05-10T06:46:31.413Z,77.56
2023-05-10T06:47:31.384Z,75.83
2023-05-10T06:48:31.315Z,76.95
2023-05-10T06:49:31.319Z,76.43
2023-05-10T06:50:31.308Z,75.29
2023-05-10T06:51:31.349Z,75.43
2023-05-10T06:52:31.328Z,76.08
2023-05-10T06:53:31.313Z,76.62
2023-05-10T06:54:31.273Z,76.10
2023-05-10T06:55:31.965Z,75.80
2023-05-10T06:56:31.282Z,75.44
2023-05-10T06:57:32.218Z,75.45
2023-05-10T06:58:32.266Z,74.93
2023-05-10T06:59:31.258Z,75.22
2023-05-10T07:00:31.281Z,76.80
2023-05-10T07:01:31.271Z,71.77
2023-05-10T07:02:31.349Z,75.33
2023-05-10T07:03:31.316Z,77.51
2023-05-10T07:04:31.273Z,76.94
2023-05-10T07:05:31.317Z,77.12
2023-05-10T07:06:34.105Z,75.28
2023-05-10T07:07:31.256Z,76.22
2023-05-10T07:08:31.201Z,74.29
2023-05-10T07:09:31.227Z,77.29
2023-05-10T07:10:31.179Z,76.81
2023-05-10T07:11:31.182Z,76.06
2023-05-10T07:12:31.248Z,74.77
2023-05-10T07:13:31.217Z,74.42
2023-05-10T07:14:32.164Z,77.97
2023-05-10T07:15:31.170Z,77.11
2023-05-10T07:16:31.211Z,77.04
2023-05-10T07:17:31.219Z,75.82
2023-05-10T07:18:31.226Z,73.62
2023-05-10T07:19:31.173Z,77.33
2023-05-10T07:20:31.158Z,75.21
2023-05-10T07:21:31.253Z,76.26
2023-05-10T07:22:31.128Z,76.52
2023-05-10T07:23:31.886Z,78.15
2023-05-10T07:24:31.115Z,75.54
2023-05-10T07:25:31.194Z,78.41
2023-05-10T07:26:31.113Z,71.38
2023-05-10T07:27:31.091Z,76.41
2023-05-10T07:28:31.088Z,76.99
2023-05-10T07:29:31.075Z,77.43
2023-05-10T07:30:31.146Z,77.12
2023-05-10T07:31:31.074Z,74.31
2023-05-10T07:32:31.213Z,75.97
2023-05-10T07:33:31.053Z,76.91
2023-05-10T07:34:31.057Z,73.62
2023-05-10T07:35:31.039Z,75.54
2023-05-10T07:36:31.057Z,73.92
2023-05-10T07:37:31.066Z,71.49
2023-05-10T07:38:31.027Z,72.85
2023-05-10T07:39:31.027Z,74.88
2023-05-10T07:40:31.055Z,72.52
2023-05-10T07:41:31.006Z,73.19
2023-05-10T07:42:31.043Z,72.79
2023-05-10T07:43:31.043Z,74.02
2023-05-10T07:44:30.978Z,74.78
2023-05-10T07:45:31.035Z,74.45
2023-05-10T07:46:30.990Z,73.68
2023-05-10T07:47:31.036Z,72.49
2023-05-10T07:48:30.990Z,74.43
2023-05-10T07:49:30.962Z,73.84
2023-05-10T07:50:30.929Z,73.99
2023-05-10T07:51:30.944Z,74.90
2023-05-10T07:52:30.983Z,71.18
2023-05-10T07:53:30.969Z,73.93
2023-05-10T07:54:30.989Z,73.10
2023-05-10T07:55:30.932Z,75.41
2023-05-10T07:56:30.975Z,73.85
2023-05-10T07:57:30.925Z,74.46
2023-05-10T07:58:30.917Z,76.22
2023-05-10T07:59:30.938Z,74.62
2023-05-10T08:00:30.936Z,75.49
2023-05-10T08:01:30.868Z,74.98
2023-05-10T08:02:30.978Z,73.32
2023-05-10T08:03:30.975Z,69.32
2023-05-10T08:04:30.962Z,71.62
2023-05-10T08:05:30.859Z,72.10
2023-05-10T08:06:31.049Z,70.27
2023-05-10T08:07:30.912Z,73.58
2023-05-10T08:08:30.838Z,73.71
2023-05-10T08:09:30.872Z,72.29
2023-05-10T08:10:31.027Z,70.36
2023-05-10T08:11:31.157Z,72.56
2023-05-10T08:12:30.823Z,74.50
2023-05-10T08:13:30.802Z,72.73
2023-05-10T08:14:30.845Z,73.87
2023-05-10T08:15:30.940Z,71.93
2023-05-10T08:16:30.910Z,71.83
2023-05-10T08:17:30.803Z,72.38
2023-05-10T08:18:30.802Z,72.63
2023-05-10T08:19:30.808Z,71.26
2023-05-10T08:20:30.743Z,73.96
2023-05-10T08:21:30.762Z,67.99
2023-05-10T08:22:30.736Z,72.89
2023-05-10T08:23:30.751Z,75.33
2023-05-10T08:24:30.761Z,71.07
2023-05-10T08:25:30.976Z,71.67
2023-05-10T08:26:30.712Z,70.56
2023-05-10T08:27:30.701Z,71.48
2023-05-10T08:28:30.733Z,76.07
2023-05-10T08:29:38.594Z,72.45
2023-05-10T08:30:31.696Z,72.55
2023-05-10T08:31:30.752Z,68.87
2023-05-10T08:32:30.667Z,70.90
2023-05-10T08:33:30.664Z,73.04
2023-05-10T08:34:30.697Z,74.11
2023-05-10T08:35:30.676Z,73.71
2023-05-10T08:36:30.680Z,72.47
2023-05-10T08:37:30.650Z,75.45
2023-05-10T08:38:30.660Z,68.63
2023-05-10T08:39:30.972Z,70.55
2023-05-10T08:40:31.659Z,74.76
2023-05-10T08:41:30.661Z,71.51
2023-05-10T08:42:30.615Z,72.25
2023-05-10T08:43:30.687Z,73.55
2023-05-10T08:44:30.600Z,72.04
2023-05-10T08:45:30.685Z,71.43
2023-05-10T08:46:30.703Z,72.09
2023-05-10T08:47:30.634Z,73.95
2023-05-10T08:48:30.580Z,70.38
2023-05-10T08:49:30.582Z,71.70
2023-05-10T08:50:31.390Z,72.49
2023-05-10T08:51:30.556Z,70.21
2023-05-10T08:52:30.589Z,72.61
2023-05-10T08:53:30.591Z,69.70
2023-05-10T08:54:30.562Z,73.64
2023-05-10T08:55:30.555Z,73.82
2023-05-10T08:56:30.535Z,71.67
2023-05-10T08:57:30.561Z,70.87
2023-05-10T08:58:30.557Z,71.39
2023-05-10T08:59:30.527Z,70.18
2023-05-10T09:00:30.522Z,73.23
2023-05-10T09:01:30.562Z,73.79
2023-05-10T09:02:30.544Z,71.17
2023-05-10T09:03:30.675Z,70.59
2023-05-10T09:04:30.653Z,74.98
2023-05-10T09:05:30.549Z,70.12
2023-05-10T09:06:30.497Z,72.67
2023-05-10T09:07:30.622Z,73.16
2023-05-10T09:08:30.464Z,71.90
2023-05-10T09:09:30.569Z,70.78
2023-05-10T09:10:30.466Z,72.08
2023-05-10T09:11:30.537Z,71.92
2023-05-10T09:12:30.445Z,71.13
2023-05-10T09:13:30.453Z,72.30
2023-05-10T09:14:30.436Z,69.54
2023-05-10T09:15:30.453Z,72.71
2023-05-10T09:16:30.469Z,70.49
2023-05-10T09:17:30.409Z,73.06
2023-05-10T09:18:30.506Z,69.86
2023-05-10T09:19:30.511Z,72.65
2023-05-10T09:20:30.407Z,74.09
2023-05-10T09:21:30.381Z,73.41
2023-05-10T09:22:30.361Z,72.19
2023-05-10T09:23:30.385Z,68.90
2023-05-10T09:24:30.424Z,72.97
2023-05-10T09:25:30.351Z,74.21
2023-05-10T09:26:30.392Z,69.87
2023-05-10T09:27:30.364Z,71.62
2023-05-10T09:28:30.316Z,73.16
2023-05-10T09:29:30.360Z,69.00
2023-05-10T09:30:30.332Z,74.90
2023-05-10T09:31:30.593Z,73.29
2023-05-10T09:32:30.350Z,72.34
2023-05-10T09:33:30.307Z,71.32
2023-05-10T09:34:30.364Z,74.31
2023-05-10T09:35:30.345Z,70.96
2023-05-10T09:36:30.291Z,69.42
2023-05-10T09:37:30.313Z,66.86
2023-05-10T09:38:30.351Z,69.04
2023-05-10T09:39:30.257Z,73.22
2023-05-10T09:40:30.250Z,68.98
2023-05-10T09:41:30.262Z,70.19
2023-05-10T09:42:30.246Z,71.38
2023-05-10T09:43:30.287Z,72.10
2023-05-10T09:44:30.280Z,71.15
2023-05-10T09:45:30.207Z,72.99
2023-05-10T09:46:30.250Z,72.32
2023-05-10T09:47:30.249Z,70.30
2023-05-10T09:48:30.196Z,73.26
2023-05-10T09:49:30.403Z,75.46
2023-05-10T09:50:30.224Z,71.68
2023-05-10T09:51:30.190Z,72.41
2023-05-10T09:52:30.159Z,69.42
2023-05-10T09:53:30.159Z,70.46
2023-05-10T09:54:30.206Z,73.49
2023-05-10T09:55:30.133Z,73.69
2023-05-10T09:56:30.138Z,72.15
2023-05-10T09:57:30.144Z,72.62
2023-05-10T09:58:30.136Z,73.94
2023-05-10T09:59:30.154Z,72.98
2023-05-10T10:00:30.132Z,74.60
2023-05-10T10:01:30.507Z,73.43
2023-05-10T10:02:30.351Z,71.10
2023-05-10T10:03:30.446Z,71.67
2023-05-10T10:04:31.181Z,73.12
2023-05-10T10:05:30.108Z,76.07
2023-05-10T10:06:30.755Z,72.23
2023-05-10T10:07:30.163Z,73.23
2023-05-10T10:08:30.122Z,72.54
2023-05-10T10:09:30.105Z,69.98
2023-05-10T10:10:30.086Z,69.43
2023-05-10T10:11:30.071Z,71.24
2023-05-10T10:12:30.075Z,72.42
2023-05-10T10:13:30.065Z,69.55
2023-05-10T10:14:30.109Z,73.39
2023-05-10T10:15:30.061Z,72.51
2023-05-10T10:16:30.182Z,68.51
2023-05-10T10:17:30.092Z,74.17
2023-05-10T10:18:30.056Z,67.67
2023-05-10T10:19:30.077Z,72.02
2023-05-10T10:20:30.007Z,69.73
2023-05-10T10:21:30.029Z,69.42
2023-05-10T10:22:29.998Z,71.47
2023-05-10T10:23:30.007Z,70.59
2023-05-10T10:24:29.974Z,72.98
2023-05-10T10:25:30.024Z,70.82
2023-05-10T10:26:30.009Z,69.95
2023-05-10T10:27:30.043Z,70.76
2023-05-10T10:28:29.969Z,71.74
2023-05-10T10:29:29.970Z,72.47
2023-05-10T10:30:29.996Z,72.06
2023-05-10T10:31:30.057Z,73.51
2023-05-10T10:32:29.956Z,71.81
2023-05-10T10:33:30.116Z,73.38
2023-05-10T10:34:29.928Z,69.49
2023-05-10T10:35:29.947Z,71.95
2023-05-10T10:36:29.910Z,71.44
2023-05-10T10:37:30.439Z,72.35
2023-05-10T10:38:29.953Z,70.89
2023-05-10T10:39:29.873Z,66.92
2023-05-10T10:40:31.320Z,68.85
2023-05-10T10:41:29.881Z,68.40
2023-05-10T10:42:30.870Z,71.67
2023-05-10T10:43:29.904Z,71.02
2023-05-10T10:44:29.854Z,68.97
2023-05-10T10:45:29.882Z,70.76
2023-05-10T10:46:29.869Z,73.82
2023-05-10T10:47:29.848Z,70.84
2023-05-10T10:48:29.861Z,66.20
2023-05-10T10:49:29.844Z,72.05
2023-05-10T10:50:29.829Z,70.63
2023-05-10T10:51:29.834Z,74.64
2023-05-10T10:52:29.845Z,69.50
2023-05-10T10:53:30.568Z,72.63
2023-05-10T10:54:29.898Z,71.88
2023-05-10T10:55:29.798Z,68.18
2023-05-10T10:56:29.778Z,68.56
2023-05-10T10:57:29.780Z,70.80
2023-05-10T10:58:29.758Z,70.31
2023-05-10T10:59:29.798Z,70.77
2023-05-10T11:00:29.803Z,74.70
2023-05-10T11:01:29.839Z,69.74
2023-05-10T11:02:31.259Z,73.20
2023-05-10T11:03:29.768Z,70.13
2023-05-10T11:04:29.835Z,73.20
2023-05-10T11:05:29.748Z,68.17
2023-05-10T11:06:29.800Z,71.68
2023-05-10T11:07:29.776Z,74.35
2023-05-10T11:08:29.734Z,70.16
2023-05-10T11:09:29.759Z,73.07
2023-05-10T11:10:29.777Z,69.79
2023-05-10T11:11:29.703Z,74.29
2023-05-10T11:12:29.741Z,72.25
2023-05-10T11:13:29.677Z,73.24
2023-05-10T11:14:29.751Z,70.15
2023-05-10T11:15:29.739Z,73.78
2023-05-10T11:16:29.706Z,71.57
2023-05-10T11:17:29.720Z,71.96
2023-05-10T11:18:29.759Z,71.44
2023-05-10T11:19:29.682Z,71.75
2023-05-10T11:20:29.667Z,72.35
2023-05-10T11:21:29.667Z,73.45
2023-05-10T11:22:29.678Z,72.72
2023-05-10T11:23:29.605Z,69.36
2023-05-10T11:24:29.611Z,72.32
2023-05-10T11:25:29.641Z,69.79
2023-05-10T11:26:29.627Z,72.67
2023-05-10T11:27:29.644Z,71.89
2023-05-10T11:28:29.735Z,71.71
2023-05-10T11:29:29.615Z,71.92
2023-05-10T11:30:29.582Z,71.21
2023-05-10T11:31:29.807Z,72.81
2023-05-10T11:32:29.555Z,74.59
2023-05-10T11:33:29.543Z,72.19
2023-05-10T11:34:29.552Z,70.83
2023-05-10T11:35:29.537Z,70.50
2023-05-10T11:36:29.580Z,71.49
2023-05-10T11:37:29.560Z,72.07
2023-05-10T11:38:29.514Z,73.02
2023-05-10T11:39:29.574Z,71.00
2023-05-10T11:40:29.498Z,74.70
2023-05-10T11:41:29.515Z,68.59
2023-05-10T11:42:30.381Z,74.27
2023-05-10T11:43:29.480Z,69.80
2023-05-10T11:44:29.498Z,72.78
2023-05-10T11:45:29.479Z,65.73
2023-05-10T11:46:29.528Z,69.96
2023-05-10T11:47:29.545Z,70.90
2023-05-10T11:48:29.449Z,72.01
2023-05-10T11:49:29.516Z,71.24
2023-05-10T11:50:29.458Z,70.82
2023-05-10T11:51:29.431Z,73.05
2023-05-10T11:52:29.438Z,71.03
2023-05-10T11:53:29.455Z,71.65
2023-05-10T11:54:29.425Z,72.04
2023-05-10T11:55:29.488Z,72.75
2023-05-10T11:56:29.399Z,70.65
2023-05-10T11:57:29.423Z,73.03
2023-05-10T11:58:29.475Z,71.17
2023-05-10T11:59:29.421Z,71.47
2023-05-10T12:00:29.384Z,73.54
2023-05-10T12:01:30.027Z,73.18
2023-05-10T12:02:29.438Z,70.90
2023-05-10T12:03:29.611Z,73.23
2023-05-10T12:04:29.385Z,69.98
2023-05-10T12:05:29.348Z,73.02
2023-05-10T12:06:29.355Z,70.38
2023-05-10T12:07:29.344Z,69.76
2023-05-10T12:08:29.343Z,75.00
2023-05-10T12:09:42.700Z,72.44
2023-05-10T12:10:31.391Z,74.06
2023-05-10T12:11:29.315Z,73.37
2023-05-10T12:12:29.282Z,73.64
2023-05-10T12:13:29.268Z,73.12
2023-05-10T12:14:29.313Z,72.37
2023-05-10T12:15:29.311Z,74.02
2023-05-10T12:16:29.377Z,70.77
2023-05-10T12:17:29.383Z,73.53
2023-05-10T12:18:29.307Z,72.52
2023-05-10T12:19:29.318Z,71.30
2023-05-10T12:20:29.220Z,71.51
2023-05-10T12:21:29.257Z,69.69
2023-05-10T12:22:29.296Z,73.13
2023-05-10T12:23:29.261Z,72.94
2023-05-10T12:24:29.239Z,74.68
2023-05-10T12:25:29.209Z,71.55
2023-05-10T12:26:29.211Z,74.77
2023-05-10T12:27:29.211Z,72.28
2023-05-10T12:28:29.218Z,72.93
2023-05-10T12:29:29.193Z,74.35
2023-05-10T12:30:29.235Z,72.20
2023-05-10T12:31:29.233Z,69.92
2023-05-10T12:32:29.206Z,70.82
2023-05-10T12:33:29.193Z,71.08
2023-05-10T12:34:29.129Z,72.93
2023-05-10T12:35:29.200Z,74.25
2023-05-10T12:36:29.142Z,74.77
2023-05-10T12:37:29.142Z,74.62
2023-05-10T12:38:29.115Z,74.00
2023-05-10T12:39:29.123Z,74.36
2023-05-10T12:40:30.597Z,72.64
2023-05-10T12:41:29.097Z,74.27
2023-05-10T12:42:29.082Z,75.20
2023-05-10T12:43:29.128Z,73.49
2023-05-10T12:44:29.077Z,73.57
2023-05-10T12:45:29.105Z,73.45
2023-05-10T12:46:29.403Z,75.55
2023-05-10T12:47:29.093Z,73.94
2023-05-10T12:48:29.110Z,72.95
2023-05-10T12:49:29.068Z,74.26
2023-05-10T12:50:29.086Z,73.07
2023-05-10T12:51:29.111Z,75.04
2023-05-10T12:52:29.100Z,74.33